createdAt,value
2022-10-31T00:00:58.860Z,63.74
2022-10-31T00:06:21.525Z,63.77
2022-10-31T00:11:24.926Z,63.81
2022-10-31T00:16:29.335Z,63.75
2022-10-31T00:21:33.446Z,63.80
2022-10-31T00:26:36.301Z,63.75
2022-10-31T00:31:40.152Z,63.84
2022-10-31T00:36:43.236Z,63.78
2022-10-31T00:41:49.793Z,63.76
2022-10-31T00:46:52.701Z,63.85
2022-10-31T00:51:58.243Z,63.82
2022-10-31T00:57:01.203Z,63.99
2022-10-31T01:02:04.240Z,64.06
2022-10-31T01:07:07.254Z,64.41
2022-10-31T01:12:10.194Z,65.28
2022-10-31T01:17:15.527Z,66.12
2022-10-31T01:22:18.349Z,66.21
2022-10-31T01:27:21.219Z,66.06
2022-10-31T01:32:25.806Z,65.64
2022-10-31T01:37:28.740Z,64.87
2022-10-31T01:42:31.599Z,64.73
2022-10-31T01:47:42.179Z,64.75
2022-10-31T01:52:50.623Z,65.71
2022-10-31T01:57:58.933Z,65.43
2022-10-31T02:03:02.581Z,64.78
2022-10-31T02:08:12.512Z,64.71
2022-10-31T02:13:15.573Z,65.19
2022-10-31T02:18:25.513Z,65.71
2022-10-31T02:23:50.617Z,65.85
2022-10-31T02:29:06.208Z,65.45
2022-10-31T02:34:15.037Z,64.57
2022-10-31T02:39:52.283Z,64.73
2022-10-31T02:45:12.072Z,65.22
2022-10-31T02:50:24.622Z,65.44
2022-10-31T02:55:27.387Z,65.41
2022-10-31T03:00:51.256Z,65.44
2022-10-31T03:06:30.643Z,65.65
2022-10-31T03:11:50.970Z,65.70
2022-10-31T03:16:58.543Z,65.43
2022-10-31T03:22:27.056Z,65.12
2022-10-31T03:27:36.001Z,65.20
2022-10-31T03:32:55.639Z,65.12
2022-10-31T03:38:06.804Z,65.13
2022-10-31T03:48:28.775Z,65.12
2022-10-31T03:53:50.204Z,64.93
2022-10-31T03:59:01.379Z,65.02
2022-10-31T04:04:07.415Z,64.82
2022-10-31T04:09:11.054Z,64.75
2022-10-31T04:14:13.879Z,64.72
2022-10-31T04:19:18.346Z,64.61
2022-10-31T04:24:21.428Z,64.62
2022-10-31T04:29:25.009Z,64.47
2022-10-31T04:34:28.157Z,64.58
2022-10-31T04:39:31.033Z,64.42
2022-10-31T04:44:54.035Z,64.80
2022-10-31T04:49:57.188Z,64.73
2022-10-31T04:55:00.084Z,64.58
2022-10-31T05:00:29.890Z,64.68
2022-10-31T05:05:33.569Z,64.55
2022-10-31T05:10:39.267Z,64.51
2022-10-31T05:15:42.206Z,63.99
2022-10-31T05:21:03.313Z,63.56
2022-10-31T05:26:14.785Z,63.78
2022-10-31T05:31:17.768Z,63.81
2022-10-31T05:36:20.965Z,64.21
2022-10-31T05:41:39.490Z,64.43
2022-10-31T05:46:49.296Z,64.61
2022-10-31T05:52:30.688Z,64.34
2022-10-31T05:57:39.165Z,64.43
2022-10-31T06:02:42.026Z,64.57
2022-10-31T06:08:07.856Z,64.83
2022-10-31T06:13:11.460Z,64.96
2022-10-31T06:18:20.425Z,65.12
2022-10-31T06:23:25.306Z,65.34
2022-10-31T06:28:32.311Z,65.64
2022-10-31T06:33:49.940Z,65.99
2022-10-31T06:38:53.480Z,66.04
2022-10-31T06:43:58.281Z,66.11
2022-10-31T06:49:24.122Z,65.87
2022-10-31T06:54:30.628Z,65.90
2022-10-31T06:59:33.581Z,65.74
2022-10-31T07:04:42.285Z,65.70
2022-10-31T07:09:47.570Z,65.86
2022-10-31T07:14:51.493Z,65.87
2022-10-31T07:19:54.622Z,65.83
2022-10-31T07:24:57.748Z,65.54
2022-10-31T07:30:14.724Z,65.33
2022-10-31T07:35:28.884Z,65.22
2022-10-31T07:40:35.445Z,67.70
2022-10-31T07:45:38.930Z,65.65
2022-10-31T07:51:02.030Z,64.00
2022-10-31T07:56:23.473Z,63.65
2022-10-31T08:01:26.439Z,63.42
2022-10-31T08:06:58.293Z,63.12
2022-10-31T08:12:05.095Z,63.11
2022-10-31T08:17:08.905Z,63.07
2022-10-31T08:22:20.481Z,62.80
2022-10-31T08:27:24.693Z,63.01
2022-10-31T08:32:28.101Z,62.71
2022-10-31T08:38:13.577Z,62.54
2022-10-31T08:43:19.930Z,62.57
2022-10-31T08:48:24.209Z,62.43
2022-10-31T08:53:27.891Z,62.16
2022-10-31T08:58:55.035Z,61.93
2022-10-31T09:04:06.259Z,61.77
2022-10-31T09:09:09.094Z,61.36
2022-10-31T09:14:12.043Z,61.37
2022-10-31T09:19:14.857Z,61.17
2022-10-31T09:24:22.982Z,60.78
2022-10-31T09:29:25.808Z,60.55
2022-10-31T09:34:33.562Z,60.49
2022-10-31T09:39:45.315Z,60.16
2022-10-31T09:45:13.341Z,59.90
2022-10-31T09:50:33.898Z,59.59
2022-10-31T09:55:43.675Z,59.32
2022-10-31T10:00:49.165Z,58.94
2022-10-31T10:05:52.196Z,58.63
2022-10-31T10:11:21.329Z,58.47
2022-10-31T10:17:02.641Z,58.03
2022-10-31T10:22:36.156Z,57.79
2022-10-31T10:27:50.624Z,57.51
2022-10-31T10:32:58.704Z,57.25
2022-10-31T10:38:22.975Z,56.72
2022-10-31T10:43:33.971Z,56.51
2022-10-31T10:48:44.681Z,55.84
2022-10-31T10:54:04.149Z,55.47
2022-10-31T10:59:14.960Z,55.19
2022-10-31T11:04:34.591Z,54.98
2022-10-31T11:09:38.711Z,54.94
2022-10-31T11:14:51.761Z,54.69
2022-10-31T11:20:31.449Z,54.47
2022-10-31T11:25:34.363Z,54.16
2022-10-31T11:30:47.750Z,53.95
2022-10-31T11:35:53.499Z,53.71
2022-10-31T11:41:18.815Z,53.55
2022-10-31T11:46:46.996Z,53.22
2022-10-31T11:51:57.737Z,53.13
2022-10-31T11:57:01.035Z,52.98
2022-10-31T12:02:19.789Z,52.73
2022-10-31T12:07:24.379Z,52.42
2022-10-31T12:12:44.615Z,52.27
2022-10-31T12:18:03.863Z,52.11
2022-10-31T12:23:44.279Z,51.66
2022-10-31T12:29:00.838Z,51.69
2022-10-31T12:34:22.460Z,51.40
2022-10-31T12:39:35.494Z,51.20
2022-10-31T12:44:53.376Z,51.01
2022-10-31T12:50:08.180Z,50.90
2022-10-31T12:55:23.515Z,50.86
2022-10-31T13:00:30.380Z,50.50
2022-10-31T13:05:45.941Z,50.37
2022-10-31T13:11:07.357Z,50.40
2022-10-31T13:16:18.734Z,50.25
2022-10-31T13:21:38.397Z,50.03
2022-10-31T13:26:50.203Z,49.85
2022-10-31T13:31:53.178Z,49.76
2022-10-31T13:36:59.015Z,49.68
2022-10-31T13:42:11.445Z,49.59
2022-10-31T13:47:29.836Z,49.59
2022-10-31T13:52:32.747Z,49.43
2022-10-31T13:57:45.102Z,49.39
2022-10-31T14:02:58.790Z,49.31
2022-10-31T14:08:07.482Z,49.33
2022-10-31T14:13:19.364Z,49.46
2022-10-31T14:18:31.411Z,49.52
2022-10-31T14:23:41.702Z,49.86
2022-10-31T14:28:45.391Z,50.22
2022-10-31T14:33:49.093Z,50.45
2022-10-31T14:38:57.084Z,50.56
2022-10-31T14:44:38.951Z,50.67
2022-10-31T14:50:01.555Z,50.61
2022-10-31T14:55:08.279Z,50.72
2022-10-31T15:00:18.980Z,50.79
2022-10-31T15:05:22.468Z,51.02
2022-10-31T15:10:30.766Z,51.09
2022-10-31T15:15:35.073Z,51.30
2022-10-31T15:20:44.807Z,51.51
2022-10-31T15:25:47.912Z,51.83
2022-10-31T15:30:56.484Z,52.58
2022-10-31T15:36:02.067Z,52.99
2022-10-31T15:41:22.930Z,53.31
2022-10-31T15:46:28.233Z,53.44
2022-10-31T15:51:34.686Z,53.55
2022-10-31T15:56:37.728Z,53.60
2022-10-31T16:01:40.707Z,53.36
2022-10-31T16:06:43.638Z,53.43
2022-10-31T16:11:46.628Z,53.63
2022-10-31T16:16:53.462Z,54.00
2022-10-31T16:22:09.631Z,54.30
2022-10-31T16:27:24.306Z,54.57
2022-10-31T16:32:52.341Z,54.85
2022-10-31T16:37:55.609Z,55.07
2022-10-31T16:43:00.629Z,55.43
2022-10-31T16:48:09.935Z,55.66
2022-10-31T16:53:15.748Z,56.03
2022-10-31T16:58:36.805Z,56.13
2022-10-31T17:03:40.248Z,56.57
2022-10-31T17:08:43.181Z,56.78
2022-10-31T17:13:46.350Z,56.90
2022-10-31T17:18:49.260Z,57.13
2022-10-31T17:23:52.383Z,57.37
2022-10-31T17:28:56.125Z,57.55
2022-10-31T17:34:02.729Z,57.71
2022-10-31T17:39:09.394Z,58.58
2022-10-31T17:44:12.893Z,58.04
2022-10-31T17:49:15.864Z,58.15
2022-10-31T17:54:22.768Z,58.09
2022-10-31T17:59:27.702Z,58.43
2022-10-31T18:04:30.784Z,58.77
2022-10-31T18:09:34.388Z,58.74
2022-10-31T18:14:37.337Z,59.01
2022-10-31T18:19:40.376Z,59.13
2022-10-31T18:24:43.279Z,59.32
2022-10-31T18:29:47.439Z,59.53
2022-10-31T18:34:50.461Z,59.42
2022-10-31T18:39:53.240Z,59.40
2022-10-31T18:44:56.504Z,59.58
2022-10-31T18:50:01.329Z,59.73
2022-10-31T18:55:04.728Z,59.69
2022-10-31T19:00:08.326Z,59.85
2022-10-31T19:05:11.175Z,59.81
2022-10-31T19:10:17.538Z,59.94
2022-10-31T19:15:20.902Z,60.17
2022-10-31T19:20:24.002Z,60.31
2022-10-31T19:25:26.910Z,60.32
2022-10-31T19:30:29.717Z,60.29
2022-10-31T19:35:32.567Z,60.28
2022-10-31T19:40:36.684Z,60.27
2022-10-31T19:45:39.517Z,60.40
2022-10-31T19:50:42.349Z,60.71
2022-10-31T19:55:45.452Z,60.84
2022-10-31T20:00:48.470Z,60.93
2022-10-31T20:05:51.628Z,61.11
2022-10-31T20:11:04.255Z,60.97
2022-10-31T20:16:10.064Z,60.92
2022-10-31T20:21:15.719Z,60.84
2022-10-31T20:26:19.350Z,60.81
2022-10-31T20:31:24.518Z,61.11
2022-10-31T20:36:29.643Z,61.19
2022-10-31T20:41:32.743Z,61.33
2022-10-31T20:46:35.697Z,61.41
2022-10-31T20:51:38.743Z,61.45
2022-10-31T20:56:42.660Z,61.55
2022-10-31T21:01:45.725Z,61.60
2022-10-31T21:06:49.711Z,61.76
2022-10-31T21:11:52.729Z,61.75
2022-10-31T21:16:55.801Z,61.89
2022-10-31T21:21:58.687Z,62.17
2022-10-31T21:27:02.816Z,61.94
2022-10-31T21:32:06.173Z,61.84
2022-10-31T21:37:09.045Z,61.87
2022-10-31T21:42:11.875Z,61.95
2022-10-31T21:47:15.268Z,62.05
2022-10-31T21:52:18.286Z,62.12
2022-10-31T22:02:25.101Z,62.08
2022-10-31T22:07:28.020Z,62.15
2022-10-31T22:12:30.868Z,62.16
2022-10-31T22:17:33.967Z,62.17
2022-10-31T22:22:36.795Z,62.30
2022-10-31T22:27:39.607Z,62.32
2022-10-31T22:32:42.468Z,62.33
2022-10-31T22:37:45.385Z,62.15
2022-10-31T22:42:48.178Z,62.15
2022-10-31T22:47:51.104Z,62.06
2022-10-31T22:52:53.899Z,61.93
2022-10-31T22:57:57.891Z,62.06
2022-10-31T23:03:01.256Z,61.97
2022-10-31T23:08:04.605Z,62.13
2022-10-31T23:13:27.984Z,62.31
2022-10-31T23:18:49.165Z,62.40
2022-10-31T23:23:52.764Z,62.38
2022-10-31T23:28:55.590Z,62.55
2022-10-31T23:33:58.393Z,62.59
2022-10-31T23:39:01.248Z,62.78
2022-10-31T23:44:04.613Z,62.72
2022-10-31T23:49:07.477Z,62.86
2022-10-31T23:54:10.262Z,63.01
2022-10-31T23:59:13.284Z,62.92
